DMAD Reservoir




Date Reservoir Capacity (AF) Hourly Avg. Stream Stage (ft) Reservoir Outflow (cfs) Reservoir Gate 1 Height (ft) Reservoir Gate 2 Height (ft) Reservoir Gate 3 Height (ft) Stream Flow (cfs) Stream Conductivity (ppm) Battery Voltage (V) Reservoir Height (ft) Canal Flow (cfs) Canal Height (ft) Canal Flow 2 (ft)
09/01/2017 2,097 41 0.00 0.00 0.67 0.00 0.00 13.12 55.44 0.00 0.00
09/02/2017 2,121 134 0.00 0.00 2.21 0.00 0.00 13.00 55.50 0.00 0.00
09/03/2017 2,101 27 0.00 0.00 0.44 0.00 0.00 12.99 55.45 0.00 0.00
09/04/2017 2,268 0 0.00 0.00 0.00 0.00 0.00 13.29 55.88 0.00 0.00
09/05/2017 2,531 0 0.00 0.00 0.00 0.00 0.00 13.28 56.34 0.00 0.00
09/06/2017 2,601 0 0.00 0.00 0.00 0.00 0.00 13.26 56.45 0.00 0.00
09/07/2017 2,607 0 0.00 0.00 0.00 0.00 0.00 13.18 56.46 0.00 0.00
09/08/2017 2,601 0 0.00 0.00 0.00 0.00 0.00 13.21 56.45 0.00 0.00
09/09/2017 2,601 0 0.00 0.00 0.00 0.00 0.00 13.14 56.45 0.00 0.00
09/10/2017 2,607 0 0.00 0.00 0.00 0.00 0.00 13.31 56.46 0.00 0.00
09/11/2017 2,607 0 0.00 0.00 0.00 0.00 0.00 13.28 56.46 0.00 0.00
09/12/2017 2,677 0 0.00 0.00 0.00 0.00 0.00 13.23 56.57 0.00 0.00
09/13/2017 2,766 0 0.00 0.00 0.00 0.00 0.00 13.26 56.71 0.00 0.00
09/14/2017 2,760 0 0.00 0.00 0.00 0.00 0.00 12.86 56.70 0.00 0.00
09/15/2017 2,804 0 0.00 0.00 0.00 0.00 0.00 13.12 56.77 0.00 0.00
09/16/2017 3,058 0 0.00 0.00 0.00 0.00 0.00 13.39 57.18 0.00 0.00
09/17/2017 3,381 0 0.00 0.00 0.00 0.00 0.00 13.29 57.72 0.00 0.00
09/18/2017 3,512 0 0.00 0.00 0.00 0.00 0.00 13.30 57.94 0.00 0.00
09/19/2017 3,542 0 0.00 0.00 0.00 0.00 0.00 13.29 57.99 0.00 0.00
09/20/2017 3,563 0 0.00 0.00 0.00 0.00 0.00 13.32 58.02 0.00 0.00
09/21/2017 4,298 0 0.00 0.00 0.00 0.00 0.00 13.19 59.01 0.00 0.00
09/22/2017 4,625 0 0.00 0.00 0.00 0.00 0.00 13.30 59.45 0.00 0.00
09/23/2017 4,633 0 0.00 0.00 0.00 0.00 0.00 13.26 59.46 0.00 0.00
09/24/2017 4,655 0 0.00 0.00 0.00 0.00 0.00 13.07 59.49 0.00 0.00
09/25/2017 4,692 0 0.00 0.00 0.00 0.00 0.00 13.45 59.54 0.00 0.00
09/26/2017 4,700 0 0.00 0.00 0.00 0.00 0.00 13.38 59.55 0.00 0.00
09/27/2017 4,752 0 0.00 0.00 0.00 0.00 0.00 13.36 59.62 0.00 0.00
09/28/2017 4,774 0 0.00 0.00 0.00 0.00 0.00 13.28 59.65 0.00 0.00
09/29/2017 4,781 0 0.00 0.00 0.00 0.00 0.00 13.31 59.66 0.00 0.00
09/30/2017 4,900 0 0.00 0.00 0.00 0.00 0.00 13.21 59.82 0.00 0.00
Average 7 0.00 0.00
Maximum 134 0.00 0.00
Minimum 0 0.00 0.00
Total Volume (AF) 401 0.00 0.00